Isola Bianca — ICLD — position and weather

sailwx.info

Track history (hours):
 
Tides and Currents Weather Stations Pressure Air Temp Water Temp Dewpoint Dewpoint Depression Visibility Wind Speed Wind Dir Waves Ship Positions

Isola Bianca

Last reported at 2016-Jun-29 10:04 UTC. Time now 2016-Jun-29 16:32 UTC.
Position N 36°55' E 006°56'.

Length 183 m; draft 8.7 m.

Type: Ship. MMSI: 247245200.

Date/timePositionNaut miles runAvg speedWind from/ knotsBaromVisibWave heightAir tempDewpointWater temp
2016-Jun-29 10:04N 36°55' E 006°56'2710.1
2016-Jun-29 07:21N 37°10' E 006°28'8812.8
2016-Jun-29 00:29N 37°14' E 004°38'1212.8
2016-Jun-28 23:33N 37°13' E 004°23'1312.9
2016-Jun-28 22:33N 37°13' E 004°06'1212.5
2016-Jun-28 21:33N 37°12' E 003°51'1311.9
2016-Jun-28 20:30N 37°12' E 003°35'1111.7
2016-Jun-28 19:31N 37°12' E 003°21'1212.2
2016-Jun-28 18:33N 37°11' E 003°06'1312.6
2016-Jun-28 17:33N 37°08' E 002°51'1312.7
2016-Jun-28 16:33N 37°05' E 002°35'1212.4
2016-Jun-28 15:33N 37°01' E 002°20'1412.2
2016-Jun-28 14:26N 36°59' E 002°03'1112.9
2016-Jun-28 13:33N 36°56' E 001°49'1312.8
2016-Jun-28 12:33N 36°54' E 001°34'1712.8
2016-Jun-28 11:14N 36°50' E 001°13'912.7
2016-Jun-28 10:32N 36°48' E 001°02'1312.1
2016-Jun-28 09:27N 36°45' E 000°47'2912.3
2016-Jun-28 07:06N 36°39' E 000°11'26312.2
2016-Jun-27 09:33N 36°05' W 005°13'9 8.5
2016-Jun-27 08:33N 36°05' W 005°23'0 0.2
2016-Jun-27 07:34N 36°05' W 005°23'4 3.6
2016-Jun-27 06:32N 36°09' W 005°23'0 0.0
2016-Jun-27 05:32N 36°09' W 005°23'0 0.1
2016-Jun-27 03:17N 36°09' W 005°23'0 0.3
2016-Jun-27 02:32N 36°09' W 005°23'0 0.0
2016-Jun-27 01:32N 36°09' W 005°23'0 0.0
2016-Jun-27 00:26N 36°09' W 005°23'0 0.0
2016-Jun-26 23:32N 36°09' W 005°23'0 0.0
2016-Jun-26 22:32N 36°09' W 005°23'0 0.0
2016-Jun-26 21:29N 36°09' W 005°23'0 0.1
2016-Jun-26 20:29N 36°09' W 005°23'0 0.1
2016-Jun-26 19:14N 36°09' W 005°23'0 0.0
2016-Jun-26 18:05N 36°09' W 005°23'0 0.0
2016-Jun-26 17:23N 36°09' W 005°23'0 0.1
2016-Jun-26 16:32N 36°09' W 005°23'4 3.9
2016-Jun-26 15:33N 36°05' W 005°21'8 5.3
2016-Jun-26 14:04N 36°10' W 005°13'1 1.0
2016-Jun-26 13:33N 36°10' W 005°13'1 1.1
2016-Jun-26 12:33N 36°08' W 005°13'8 8.3
2016-Jun-26 11:33N 36°01' W 005°17'1212.5
2016-Jun-26 10:34N 35°56' W 005°31'49413.0
2016-Jun-24 20:32N 30°22' W 012°45'2612.6
2016-Jun-24 18:30N 30°03' W 013°04'18513.1
2016-Jun-24 04:22N 27°33' W 015°09'1012.3
2016-Jun-24 03:32N 27°24' W 015°13'  
2016-Jun-21 21:18N 16°19' W 017°55'  
Track history (hours):
 
Tides and Currents Weather Stations Pressure Air Temp Water Temp Dewpoint Dewpoint Depression Visibility Wind Speed Wind Dir Waves Ship Positions

Isola Bianca

Last reported at 2016-Jun-29 10:04 UTC. Time now 2016-Jun-29 16:32 UTC.
Position N 36°55' E 006°56'.

Length 183 m; draft 8.7 m.

Type: Ship. MMSI: 247245200.

Date/timePositionNaut miles runAvg speedWind from/ knotsBaromVisibWave heightAir tempDewpointWater temp
2016-Jun-29 10:04N 36°55' E 006°56'2710.1
2016-Jun-29 07:21N 37°10' E 006°28'8812.8
2016-Jun-29 00:29N 37°14' E 004°38'1212.8
2016-Jun-28 23:33N 37°13' E 004°23'1312.9
2016-Jun-28 22:33N 37°13' E 004°06'1212.5
2016-Jun-28 21:33N 37°12' E 003°51'1311.9
2016-Jun-28 20:30N 37°12' E 003°35'1111.7
2016-Jun-28 19:31N 37°12' E 003°21'1212.2
2016-Jun-28 18:33N 37°11' E 003°06'1312.6
2016-Jun-28 17:33N 37°08' E 002°51'1312.7
2016-Jun-28 16:33N 37°05' E 002°35'1212.4
2016-Jun-28 15:33N 37°01' E 002°20'1412.2
2016-Jun-28 14:26N 36°59' E 002°03'1112.9
2016-Jun-28 13:33N 36°56' E 001°49'1312.8
2016-Jun-28 12:33N 36°54' E 001°34'1712.8
2016-Jun-28 11:14N 36°50' E 001°13'912.7
2016-Jun-28 10:32N 36°48' E 001°02'1312.1
2016-Jun-28 09:27N 36°45' E 000°47'2912.3
2016-Jun-28 07:06N 36°39' E 000°11'26312.2
2016-Jun-27 09:33N 36°05' W 005°13'9 8.5
2016-Jun-27 08:33N 36°05' W 005°23'0 0.2
2016-Jun-27 07:34N 36°05' W 005°23'4 3.6
2016-Jun-27 06:32N 36°09' W 005°23'0 0.0
2016-Jun-27 05:32N 36°09' W 005°23'0 0.1
2016-Jun-27 03:17N 36°09' W 005°23'0 0.3
2016-Jun-27 02:32N 36°09' W 005°23'0 0.0
2016-Jun-27 01:32N 36°09' W 005°23'0 0.0
2016-Jun-27 00:26N 36°09' W 005°23'0 0.0
2016-Jun-26 23:32N 36°09' W 005°23'0 0.0
2016-Jun-26 22:32N 36°09' W 005°23'0 0.0
2016-Jun-26 21:29N 36°09' W 005°23'0 0.1
2016-Jun-26 20:29N 36°09' W 005°23'0 0.1
2016-Jun-26 19:14N 36°09' W 005°23'0 0.0
2016-Jun-26 18:05N 36°09' W 005°23'0 0.0
2016-Jun-26 17:23N 36°09' W 005°23'0 0.1
2016-Jun-26 16:32N 36°09' W 005°23'4 3.9
2016-Jun-26 15:33N 36°05' W 005°21'8 5.3
2016-Jun-26 14:04N 36°10' W 005°13'1 1.0
2016-Jun-26 13:33N 36°10' W 005°13'1 1.1
2016-Jun-26 12:33N 36°08' W 005°13'8 8.3
2016-Jun-26 11:33N 36°01' W 005°17'1212.5
2016-Jun-26 10:34N 35°56' W 005°31'49413.0
2016-Jun-24 20:32N 30°22' W 012°45'2612.6
2016-Jun-24 18:30N 30°03' W 013°04'18513.1
2016-Jun-24 04:22N 27°33' W 015°09'1012.3
2016-Jun-24 03:32N 27°24' W 015°13'  
2016-Jun-21 21:18N 16°19' W 017°55'  

Dump ship's entire track history